sensor_id;sensor_type;location;lat;lon;timestamp;temperature;humidity
67064;SHT30;58476;48.072;11.970;2023-02-11T00:00:30;21.14;43.88
67064;SHT30;58476;48.072;11.970;2023-02-11T00:02:56;21.11;43.81
67064;SHT30;58476;48.072;11.970;2023-02-11T00:05:21;21.11;43.80
67064;SHT30;58476;48.072;11.970;2023-02-11T00:07:46;21.06;44.23
67064;SHT30;58476;48.072;11.970;2023-02-11T00:10:12;21.08;43.93
67064;SHT30;58476;48.072;11.970;2023-02-11T00:12:37;21.04;43.89
67064;SHT30;58476;48.072;11.970;2023-02-11T00:15:04;21.07;43.83
67064;SHT30;58476;48.072;11.970;2023-02-11T00:17:31;21.03;43.89
67064;SHT30;58476;48.072;11.970;2023-02-11T00:19:56;21.03;44.13
67064;SHT30;58476;48.072;11.970;2023-02-11T00:22:22;21.00;44.01
67064;SHT30;58476;48.072;11.970;2023-02-11T00:24:47;21.00;44.04
67064;SHT30;58476;48.072;11.970;2023-02-11T00:27:12;21.00;44.04
67064;SHT30;58476;48.072;11.970;2023-02-11T00:29:38;21.00;44.00
67064;SHT30;58476;48.072;11.970;2023-02-11T00:32:03;21.00;43.99
67064;SHT30;58476;48.072;11.970;2023-02-11T00:34:32;20.98;43.97
67064;SHT30;58476;48.072;11.970;2023-02-11T00:37:01;20.97;44.01
67064;SHT30;58476;48.072;11.970;2023-02-11T00:39:26;20.97;43.97
67064;SHT30;58476;48.072;11.970;2023-02-11T00:41:52;20.97;44.01
67064;SHT30;58476;48.072;11.970;2023-02-11T00:44:17;20.96;43.93
67064;SHT30;58476;48.072;11.970;2023-02-11T00:46:43;20.96;44.00
67064;SHT30;58476;48.072;11.970;2023-02-11T00:49:09;20.94;44.05
67064;SHT30;58476;48.072;11.970;2023-02-11T00:51:35;20.94;43.98
67064;SHT30;58476;48.072;11.970;2023-02-11T00:54:02;20.91;43.97
67064;SHT30;58476;48.072;11.970;2023-02-11T00:56:27;20.90;43.96
67064;SHT30;58476;48.072;11.970;2023-02-11T00:58:54;20.90;44.00
67064;SHT30;58476;48.072;11.970;2023-02-11T01:01:20;20.91;43.99
67064;SHT30;58476;48.072;11.970;2023-02-11T01:03:46;20.90;44.09
67064;SHT30;58476;48.072;11.970;2023-02-11T01:06:11;20.94;44.04
67064;SHT30;58476;48.072;11.970;2023-02-11T01:08:37;20.94;44.02
67064;SHT30;58476;48.072;11.970;2023-02-11T01:11:05;20.96;44.05
67064;SHT30;58476;48.072;11.970;2023-02-11T01:13:32;20.97;43.90
67064;SHT30;58476;48.072;11.970;2023-02-11T01:15:58;20.97;44.05
67064;SHT30;58476;48.072;11.970;2023-02-11T01:18:24;20.97;43.98
67064;SHT30;58476;48.072;11.970;2023-02-11T01:20:51;21.01;43.98
67064;SHT30;58476;48.072;11.970;2023-02-11T01:23:16;21.01;43.97
67064;SHT30;58476;48.072;11.970;2023-02-11T01:25:42;21.01;44.03
67064;SHT30;58476;48.072;11.970;2023-02-11T01:28:15;20.98;43.99
67064;SHT30;58476;48.072;11.970;2023-02-11T01:30:41;21.03;43.96
67064;SHT30;58476;48.072;11.970;2023-02-11T01:33:06;21.01;44.07
67064;SHT30;58476;48.072;11.970;2023-02-11T01:35:31;21.01;43.95
67064;SHT30;58476;48.072;11.970;2023-02-11T01:37:57;21.01;44.06
67064;SHT30;58476;48.072;11.970;2023-02-11T01:40:23;21.01;43.99
67064;SHT30;58476;48.072;11.970;2023-02-11T01:42:48;21.00;44.04
67064;SHT30;58476;48.072;11.970;2023-02-11T01:48:08;20.98;44.05
67064;SHT30;58476;48.072;11.970;2023-02-11T01:50:36;21.00;44.09
67064;SHT30;58476;48.072;11.970;2023-02-11T01:53:02;21.01;44.01
67064;SHT30;58476;48.072;11.970;2023-02-11T01:55:28;20.98;44.07
67064;SHT30;58476;48.072;11.970;2023-02-11T01:57:59;20.96;43.97
67064;SHT30;58476;48.072;11.970;2023-02-11T02:00:33;20.93;43.97
67064;SHT30;58476;48.072;11.970;2023-02-11T02:03:06;20.91;44.09
67064;SHT30;58476;48.072;11.970;2023-02-11T02:05:37;20.90;44.03
67064;SHT30;58476;48.072;11.970;2023-02-11T02:08:30;20.88;44.08
67064;SHT30;58476;48.072;11.970;2023-02-11T02:10:57;20.87;44.16
67064;SHT30;58476;48.072;11.970;2023-02-11T02:13:23;20.84;44.12
67064;SHT30;58476;48.072;11.970;2023-02-11T02:16:12;20.84;44.21
67064;SHT30;58476;48.072;11.970;2023-02-11T02:18:58;20.83;44.18
67064;SHT30;58476;48.072;11.970;2023-02-11T02:22:31;20.79;44.25
67064;SHT30;58476;48.072;11.970;2023-02-11T02:24:58;20.79;44.25
67064;SHT30;58476;48.072;11.970;2023-02-11T02:27:39;20.76;44.25
67064;SHT30;58476;48.072;11.970;2023-02-11T02:35:47;20.72;44.32
67064;SHT30;58476;48.072;11.970;2023-02-11T02:41:13;20.66;44.35
67064;SHT30;58476;48.072;11.970;2023-02-11T02:43:41;20.67;44.32
67064;SHT30;58476;48.072;11.970;2023-02-11T02:46:12;20.65;44.40
67064;SHT30;58476;48.072;11.970;2023-02-11T02:48:37;20.65;44.41
67064;SHT30;58476;48.072;11.970;2023-02-11T03:02:46;20.60;44.45
67064;SHT30;58476;48.072;11.970;2023-02-11T03:05:24;20.56;44.36
67064;SHT30;58476;48.072;11.970;2023-02-11T03:08:01;20.57;44.41
67064;SHT30;58476;48.072;11.970;2023-02-11T03:10:35;20.55;44.46
67064;SHT30;58476;48.072;11.970;2023-02-11T03:13:03;20.55;44.46
67064;SHT30;58476;48.072;11.970;2023-02-11T03:15:31;20.50;44.49
67064;SHT30;58476;48.072;11.970;2023-02-11T03:17:59;20.52;44.43
67064;SHT30;58476;48.072;11.970;2023-02-11T03:20:26;20.46;44.48
67064;SHT30;58476;48.072;11.970;2023-02-11T03:22:57;20.46;44.56
67064;SHT30;58476;48.072;11.970;2023-02-11T03:25:29;20.46;44.56
67064;SHT30;58476;48.072;11.970;2023-02-11T03:28:16;20.49;44.43
67064;SHT30;58476;48.072;11.970;2023-02-11T03:31:08;20.50;44.42
67064;SHT30;58476;48.072;11.970;2023-02-11T03:36:26;20.52;44.40
67064;SHT30;58476;48.072;11.970;2023-02-11T03:38:55;20.53;44.31
67064;SHT30;58476;48.072;11.970;2023-02-11T03:41:23;20.56;44.31
67064;SHT30;58476;48.072;11.970;2023-02-11T03:43:52;20.56;44.27
67064;SHT30;58476;48.072;11.970;2023-02-11T03:46:23;20.59;44.25
67064;SHT30;58476;48.072;11.970;2023-02-11T03:48:55;20.57;44.26
67064;SHT30;58476;48.072;11.970;2023-02-11T03:51:23;20.59;44.26
67064;SHT30;58476;48.072;11.970;2023-02-11T03:53:52;20.60;44.24
67064;SHT30;58476;48.072;11.970;2023-02-11T03:56:20;20.59;44.18
67064;SHT30;58476;48.072;11.970;2023-02-11T03:58:47;20.62;44.18
67064;SHT30;58476;48.072;11.970;2023-02-11T04:01:13;20.62;44.20
67064;SHT30;58476;48.072;11.970;2023-02-11T04:03:39;20.60;44.16
67064;SHT30;58476;48.072;11.970;2023-02-11T04:06:04;20.60;44.19
67064;SHT30;58476;48.072;11.970;2023-02-11T04:08:30;20.62;44.13
67064;SHT30;58476;48.072;11.970;2023-02-11T04:10:55;20.63;44.09
67064;SHT30;58476;48.072;11.970;2023-02-11T04:13:21;20.63;44.10
67064;SHT30;58476;48.072;11.970;2023-02-11T04:15:46;20.60;44.11
67064;SHT30;58476;48.072;11.970;2023-02-11T04:18:12;20.62;44.09
67064;SHT30;58476;48.072;11.970;2023-02-11T04:20:37;20.60;44.06
67064;SHT30;58476;48.072;11.970;2023-02-11T04:23:02;20.60;44.05
67064;SHT30;58476;48.072;11.970;2023-02-11T04:25:28;20.57;44.19
67064;SHT30;58476;48.072;11.970;2023-02-11T04:27:53;20.52;44.19
67064;SHT30;58476;48.072;11.970;2023-02-11T04:30:19;20.50;44.07
67064;SHT30;58476;48.072;11.970;2023-02-11T04:32:44;20.47;44.14
67064;SHT30;58476;48.072;11.970;2023-02-11T04:35:09;20.47;44.14
67064;SHT30;58476;48.072;11.970;2023-02-11T04:37:35;20.45;44.17
67064;SHT30;58476;48.072;11.970;2023-02-11T04:40:00;20.43;44.12
67064;SHT30;58476;48.072;11.970;2023-02-11T04:42:26;20.42;44.14
67064;SHT30;58476;48.072;11.970;2023-02-11T04:44:51;20.42;44.08
67064;SHT30;58476;48.072;11.970;2023-02-11T04:47:16;20.39;44.16
67064;SHT30;58476;48.072;11.970;2023-02-11T04:49:42;20.35;44.09
67064;SHT30;58476;48.072;11.970;2023-02-11T04:52:07;20.38;44.11
67064;SHT30;58476;48.072;11.970;2023-02-11T04:54:33;20.33;44.13
67064;SHT30;58476;48.072;11.970;2023-02-11T04:56:59;20.33;44.03
67064;SHT30;58476;48.072;11.970;2023-02-11T04:59:24;20.32;44.07
67064;SHT30;58476;48.072;11.970;2023-02-11T05:01:50;20.30;44.03
67064;SHT30;58476;48.072;11.970;2023-02-11T05:04:15;20.29;44.01
67064;SHT30;58476;48.072;11.970;2023-02-11T05:06:41;20.29;44.05
67064;SHT30;58476;48.072;11.970;2023-02-11T05:09:06;20.26;44.03
67064;SHT30;58476;48.072;11.970;2023-02-11T05:11:31;20.25;44.05
67064;SHT30;58476;48.072;11.970;2023-02-11T05:13:57;20.25;43.99
67064;SHT30;58476;48.072;11.970;2023-02-11T05:16:22;20.24;43.98
67064;SHT30;58476;48.072;11.970;2023-02-11T05:18:48;20.26;43.98
67064;SHT30;58476;48.072;11.970;2023-02-11T05:21:16;20.25;44.00
67064;SHT30;58476;48.072;11.970;2023-02-11T05:23:41;20.24;43.91
67064;SHT30;58476;48.072;11.970;2023-02-11T05:26:07;20.24;43.95
67064;SHT30;58476;48.072;11.970;2023-02-11T05:28:33;20.24;43.98
67064;SHT30;58476;48.072;11.970;2023-02-11T05:30:59;20.22;43.88
67064;SHT30;58476;48.072;11.970;2023-02-11T05:33:24;20.21;43.86
67064;SHT30;58476;48.072;11.970;2023-02-11T05:35:49;20.22;43.90
67064;SHT30;58476;48.072;11.970;2023-02-11T05:38:15;20.22;43.83
67064;SHT30;58476;48.072;11.970;2023-02-11T05:40:40;20.24;43.88
67064;SHT30;58476;48.072;11.970;2023-02-11T05:43:06;20.22;43.88
67064;SHT30;58476;48.072;11.970;2023-02-11T05:45:32;20.24;43.90
67064;SHT30;58476;48.072;11.970;2023-02-11T05:47:57;20.21;43.86
67064;SHT30;58476;48.072;11.970;2023-02-11T05:50:23;20.24;43.88
67064;SHT30;58476;48.072;11.970;2023-02-11T05:52:51;20.25;43.84
67064;SHT30;58476;48.072;11.970;2023-02-11T05:55:16;20.28;43.73
67064;SHT30;58476;48.072;11.970;2023-02-11T05:57:42;20.26;43.66
67064;SHT30;58476;48.072;11.970;2023-02-11T06:00:08;20.29;43.68
67064;SHT30;58476;48.072;11.970;2023-02-11T06:02:37;20.33;43.60
67064;SHT30;58476;48.072;11.970;2023-02-11T06:05:03;20.35;43.66
67064;SHT30;58476;48.072;11.970;2023-02-11T06:07:28;20.39;43.65
67064;SHT30;58476;48.072;11.970;2023-02-11T06:09:54;20.39;43.70
67064;SHT30;58476;48.072;11.970;2023-02-11T06:12:19;20.43;43.68
67064;SHT30;58476;48.072;11.970;2023-02-11T06:14:45;20.45;43.82
67064;SHT30;58476;48.072;11.970;2023-02-11T06:17:10;20.49;43.68
67064;SHT30;58476;48.072;11.970;2023-02-11T06:19:35;20.55;43.74
67064;SHT30;58476;48.072;11.970;2023-02-11T06:22:01;20.53;43.75
67064;SHT30;58476;48.072;11.970;2023-02-11T06:24:26;20.56;43.73
67064;SHT30;58476;48.072;11.970;2023-02-11T06:26:52;20.60;43.69
67064;SHT30;58476;48.072;11.970;2023-02-11T06:29:17;20.63;43.58
67064;SHT30;58476;48.072;11.970;2023-02-11T06:31:43;20.66;43.48
67064;SHT30;58476;48.072;11.970;2023-02-11T06:34:09;20.67;43.36
67064;SHT30;58476;48.072;11.970;2023-02-11T06:36:36;20.69;43.15
67064;SHT30;58476;48.072;11.970;2023-02-11T06:39:02;20.70;43.27
67064;SHT30;58476;48.072;11.970;2023-02-11T06:41:28;20.72;43.40
67064;SHT30;58476;48.072;11.970;2023-02-11T06:43:53;20.73;43.54
67064;SHT30;58476;48.072;11.970;2023-02-11T06:46:21;20.76;43.60
67064;SHT30;58476;48.072;11.970;2023-02-11T06:48:47;20.77;43.52
67064;SHT30;58476;48.072;11.970;2023-02-11T06:51:13;20.77;43.49
67064;SHT30;58476;48.072;11.970;2023-02-11T06:53:42;20.77;43.55
67064;SHT30;58476;48.072;11.970;2023-02-11T06:56:11;20.77;43.33
67064;SHT30;58476;48.072;11.970;2023-02-11T06:58:37;20.76;43.43
67064;SHT30;58476;48.072;11.970;2023-02-11T07:01:07;20.75;43.58
67064;SHT30;58476;48.072;11.970;2023-02-11T07:03:37;20.73;43.79
67064;SHT30;58476;48.072;11.970;2023-02-11T07:06:03;20.79;43.96
67064;SHT30;58476;48.072;11.970;2023-02-11T07:08:29;20.79;44.08
67064;SHT30;58476;48.072;11.970;2023-02-11T07:10:54;20.83;44.09
67064;SHT30;58476;48.072;11.970;2023-02-11T07:13:19;20.83;44.47
67064;SHT30;58476;48.072;11.970;2023-02-11T07:15:45;20.90;44.50
67064;SHT30;58476;48.072;11.970;2023-02-11T07:18:10;20.88;44.34
67064;SHT30;58476;48.072;11.970;2023-02-11T07:20:36;20.91;44.44
67064;SHT30;58476;48.072;11.970;2023-02-11T07:23:02;20.94;44.30
67064;SHT30;58476;48.072;11.970;2023-02-11T07:25:27;20.90;44.34
67064;SHT30;58476;48.072;11.970;2023-02-11T07:27:52;20.90;43.56
67064;SHT30;58476;48.072;11.970;2023-02-11T07:30:18;20.88;43.80
67064;SHT30;58476;48.072;11.970;2023-02-11T07:32:43;20.88;43.81
67064;SHT30;58476;48.072;11.970;2023-02-11T07:35:08;20.91;43.77
67064;SHT30;58476;48.072;11.970;2023-02-11T07:37:34;20.93;43.78
67064;SHT30;58476;48.072;11.970;2023-02-11T07:40:00;20.93;43.80
67064;SHT30;58476;48.072;11.970;2023-02-11T07:42:25;20.94;43.74
67064;SHT30;58476;48.072;11.970;2023-02-11T07:44:50;20.96;43.68
67064;SHT30;58476;48.072;11.970;2023-02-11T07:47:16;20.97;43.64
67064;SHT30;58476;48.072;11.970;2023-02-11T07:49:41;21.00;43.62
67064;SHT30;58476;48.072;11.970;2023-02-11T07:52:06;21.00;43.64
67064;SHT30;58476;48.072;11.970;2023-02-11T07:54:32;21.03;43.63
67064;SHT30;58476;48.072;11.970;2023-02-11T07:56:57;21.04;43.70
67064;SHT30;58476;48.072;11.970;2023-02-11T07:59:22;21.06;43.65
67064;SHT30;58476;48.072;11.970;2023-02-11T08:01:48;21.07;43.62
67064;SHT30;58476;48.072;11.970;2023-02-11T08:04:13;21.07;43.65
67064;SHT30;58476;48.072;11.970;2023-02-11T08:06:41;21.10;43.65
67064;SHT30;58476;48.072;11.970;2023-02-11T08:09:07;21.11;43.64
67064;SHT30;58476;48.072;11.970;2023-02-11T08:11:34;21.11;43.61
67064;SHT30;58476;48.072;11.970;2023-02-11T08:13:59;21.12;43.66
67064;SHT30;58476;48.072;11.970;2023-02-11T08:16:30;21.14;43.54
67064;SHT30;58476;48.072;11.970;2023-02-11T08:18:57;21.17;43.52
67064;SHT30;58476;48.072;11.970;2023-02-11T08:21:23;21.23;43.57
67064;SHT30;58476;48.072;11.970;2023-02-11T08:23:49;21.25;43.56
67064;SHT30;58476;48.072;11.970;2023-02-11T08:26:18;21.27;43.52
67064;SHT30;58476;48.072;11.970;2023-02-11T08:28:45;21.34;43.49
67064;SHT30;58476;48.072;11.970;2023-02-11T08:31:32;21.35;42.77
67064;SHT30;58476;48.072;11.970;2023-02-11T08:33:58;21.17;38.52
67064;SHT30;58476;48.072;11.970;2023-02-11T08:36:27;20.98;36.98
67064;SHT30;58476;48.072;11.970;2023-02-11T08:38:54;20.98;35.90
67064;SHT30;58476;48.072;11.970;2023-02-11T08:41:19;21.08;36.93
67064;SHT30;58476;48.072;11.970;2023-02-11T08:43:45;21.14;37.80
67064;SHT30;58476;48.072;11.970;2023-02-11T08:46:14;21.17;39.10
67064;SHT30;58476;48.072;11.970;2023-02-11T08:48:40;21.24;40.11
67064;SHT30;58476;48.072;11.970;2023-02-11T08:51:16;21.31;41.05
67064;SHT30;58476;48.072;11.970;2023-02-11T08:53:42;21.39;41.21
67064;SHT30;58476;48.072;11.970;2023-02-11T08:56:09;21.44;41.48
67064;SHT30;58476;48.072;11.970;2023-02-11T08:58:35;21.51;41.58
67064;SHT30;58476;48.072;11.970;2023-02-11T09:01:01;21.58;41.60
67064;SHT30;58476;48.072;11.970;2023-02-11T09:03:26;21.62;41.89
67064;SHT30;58476;48.072;11.970;2023-02-11T09:05:51;21.69;41.91
67064;SHT30;58476;48.072;11.970;2023-02-11T09:08:18;21.71;41.98
67064;SHT30;58476;48.072;11.970;2023-02-11T09:10:43;21.79;42.03
67064;SHT30;58476;48.072;11.970;2023-02-11T09:13:08;21.85;42.23
67064;SHT30;58476;48.072;11.970;2023-02-11T09:15:34;21.89;42.09
67064;SHT30;58476;48.072;11.970;2023-02-11T09:17:59;21.92;42.05
67064;SHT30;58476;48.072;11.970;2023-02-11T09:20:25;22.00;42.05
67064;SHT30;58476;48.072;11.970;2023-02-11T09:22:52;22.05;42.23
67064;SHT30;58476;48.072;11.970;2023-02-11T09:25:17;22.10;42.47
67064;SHT30;58476;48.072;11.970;2023-02-11T09:27:42;22.16;42.30
67064;SHT30;58476;48.072;11.970;2023-02-11T09:30:08;22.16;42.44
67064;SHT30;58476;48.072;11.970;2023-02-11T09:32:33;22.23;42.32
67064;SHT30;58476;48.072;11.970;2023-02-11T09:34:59;22.23;42.44
67064;SHT30;58476;48.072;11.970;2023-02-11T09:37:25;22.26;42.58
67064;SHT30;58476;48.072;11.970;2023-02-11T09:39:50;22.32;42.57
67064;SHT30;58476;48.072;11.970;2023-02-11T09:42:44;22.39;42.79
67064;SHT30;58476;48.072;11.970;2023-02-11T09:45:28;22.43;42.82
67064;SHT30;58476;48.072;11.970;2023-02-11T09:50:35;22.41;42.78
67064;SHT30;58476;48.072;11.970;2023-02-11T09:55:37;22.44;42.40
67064;SHT30;58476;48.072;11.970;2023-02-11T09:58:09;22.46;42.01
67064;SHT30;58476;48.072;11.970;2023-02-11T10:00:55;22.46;41.95
67064;SHT30;58476;48.072;11.970;2023-02-11T10:06:36;22.47;41.51
67064;SHT30;58476;48.072;11.970;2023-02-11T10:09:31;22.46;41.32
67064;SHT30;58476;48.072;11.970;2023-02-11T10:20:13;22.44;42.11
67064;SHT30;58476;48.072;11.970;2023-02-11T10:22:49;22.41;41.67
67064;SHT30;58476;48.072;11.970;2023-02-11T10:25:32;22.37;41.90
67064;SHT30;58476;48.072;11.970;2023-02-11T10:27:59;22.36;41.98
67064;SHT30;58476;48.072;11.970;2023-02-11T10:30:32;22.36;41.95
67064;SHT30;58476;48.072;11.970;2023-02-11T10:35:45;22.36;41.98
67064;SHT30;58476;48.072;11.970;2023-02-11T10:38:11;22.39;41.95
67064;SHT30;58476;48.072;11.970;2023-02-11T10:40:36;22.36;41.94
67064;SHT30;58476;48.072;11.970;2023-02-11T10:43:09;22.37;41.96
67064;SHT30;58476;48.072;11.970;2023-02-11T10:45:39;22.37;42.21
67064;SHT30;58476;48.072;11.970;2023-02-11T10:51:15;22.36;41.96
67064;SHT30;58476;48.072;11.970;2023-02-11T10:53:40;22.37;41.91
67064;SHT30;58476;48.072;11.970;2023-02-11T10:56:07;22.36;41.87
67064;SHT30;58476;48.072;11.970;2023-02-11T11:01:03;22.33;42.26
67064;SHT30;58476;48.072;11.970;2023-02-11T11:03:33;22.40;41.97
67064;SHT30;58476;48.072;11.970;2023-02-11T11:06:01;22.43;41.86
67064;SHT30;58476;48.072;11.970;2023-02-11T11:08:47;22.46;42.00
67064;SHT30;58476;48.072;11.970;2023-02-11T11:13:53;22.48;41.64
67064;SHT30;58476;48.072;11.970;2023-02-11T11:16:27;22.48;41.76
67064;SHT30;58476;48.072;11.970;2023-02-11T11:19:14;22.46;39.81
67064;SHT30;58476;48.072;11.970;2023-02-11T11:21:45;22.44;40.59
67064;SHT30;58476;48.072;11.970;2023-02-11T11:24:39;22.46;41.33
67064;SHT30;58476;48.072;11.970;2023-02-11T11:27:17;22.46;41.85
67064;SHT30;58476;48.072;11.970;2023-02-11T11:29:50;22.47;42.09
67064;SHT30;58476;48.072;11.970;2023-02-11T11:34:49;22.48;41.50
67064;SHT30;58476;48.072;11.970;2023-02-11T11:37:29;22.51;41.81
67064;SHT30;58476;48.072;11.970;2023-02-11T11:42:28;22.50;42.42
67064;SHT30;58476;48.072;11.970;2023-02-11T11:44:57;22.51;42.49
67064;SHT30;58476;48.072;11.970;2023-02-11T11:47:35;22.51;42.59
67064;SHT30;58476;48.072;11.970;2023-02-11T11:50:17;22.54;42.67
67064;SHT30;58476;48.072;11.970;2023-02-11T11:55:37;22.54;42.78
67064;SHT30;58476;48.072;11.970;2023-02-11T11:58:10;22.53;42.89
67064;SHT30;58476;48.072;11.970;2023-02-11T12:03:39;22.63;42.93
67064;SHT30;58476;48.072;11.970;2023-02-11T12:09:08;22.71;42.72
67064;SHT30;58476;48.072;11.970;2023-02-11T12:14:32;22.85;43.06
67064;SHT30;58476;48.072;11.970;2023-02-11T12:20:21;22.85;43.76
67064;SHT30;58476;48.072;11.970;2023-02-11T12:23:04;22.84;43.33
67064;SHT30;58476;48.072;11.970;2023-02-11T12:47:51;22.37;39.21
67064;SHT30;58476;48.072;11.970;2023-02-11T12:53:39;22.36;41.05
67064;SHT30;58476;48.072;11.970;2023-02-11T12:56:13;22.36;41.07
67064;SHT30;58476;48.072;11.970;2023-02-11T12:58:41;22.33;41.45
67064;SHT30;58476;48.072;11.970;2023-02-11T13:01:15;22.30;40.67
67064;SHT30;58476;48.072;11.970;2023-02-11T13:03:51;22.27;40.76
67064;SHT30;58476;48.072;11.970;2023-02-11T13:06:27;22.27;40.90
67064;SHT30;58476;48.072;11.970;2023-02-11T13:08:58;22.27;41.32
67064;SHT30;58476;48.072;11.970;2023-02-11T13:11:33;22.30;41.49
67064;SHT30;58476;48.072;11.970;2023-02-11T13:19:29;22.33;41.97
67064;SHT30;58476;48.072;11.970;2023-02-11T13:24:49;22.21;39.64
67064;SHT30;58476;48.072;11.970;2023-02-11T13:33:04;22.21;39.85
67064;SHT30;58476;48.072;11.970;2023-02-11T13:35:38;22.26;40.22
67064;SHT30;58476;48.072;11.970;2023-02-11T13:38:17;22.29;40.51
67064;SHT30;58476;48.072;11.970;2023-02-11T13:40:43;22.30;40.98
67064;SHT30;58476;48.072;11.970;2023-02-11T13:43:21;22.34;41.28
67064;SHT30;58476;48.072;11.970;2023-02-11T13:45:49;22.34;41.43
67064;SHT30;58476;48.072;11.970;2023-02-11T13:48:28;22.41;41.61
67064;SHT30;58476;48.072;11.970;2023-02-11T13:51:03;22.47;41.60
67064;SHT30;58476;48.072;11.970;2023-02-11T13:53:30;22.50;41.79
67064;SHT30;58476;48.072;11.970;2023-02-11T13:56:11;22.55;42.07
67064;SHT30;58476;48.072;11.970;2023-02-11T13:58:48;22.64;42.03
67064;SHT30;58476;48.072;11.970;2023-02-11T14:04:18;22.65;42.31
67064;SHT30;58476;48.072;11.970;2023-02-11T14:09:47;22.69;42.78
67064;SHT30;58476;48.072;11.970;2023-02-11T14:12:33;22.72;42.73
67064;SHT30;58476;48.072;11.970;2023-02-11T14:17:32;22.77;43.31
67064;SHT30;58476;48.072;11.970;2023-02-11T14:20:00;22.77;43.68
67064;SHT30;58476;48.072;11.970;2023-02-11T14:22:30;22.77;44.15
67064;SHT30;58476;48.072;11.970;2023-02-11T14:25:15;22.77;43.84
67064;SHT30;58476;48.072;11.970;2023-02-11T14:27:47;22.79;44.24
67064;SHT30;58476;48.072;11.970;2023-02-11T14:41:17;22.74;43.42
67064;SHT30;58476;48.072;11.970;2023-02-11T14:43:58;22.74;43.76
67064;SHT30;58476;48.072;11.970;2023-02-11T14:46:25;22.69;43.80
67064;SHT30;58476;48.072;11.970;2023-02-11T14:48:53;22.69;43.62
67064;SHT30;58476;48.072;11.970;2023-02-11T14:51:27;22.68;43.73
67064;SHT30;58476;48.072;11.970;2023-02-11T14:54:10;22.71;43.64
67064;SHT30;58476;48.072;11.970;2023-02-11T14:56:36;22.67;43.69
67064;SHT30;58476;48.072;11.970;2023-02-11T14:59:01;22.64;43.85
67064;SHT30;58476;48.072;11.970;2023-02-11T15:01:32;22.60;43.43
67064;SHT30;58476;48.072;11.970;2023-02-11T15:03:59;22.54;41.18
67064;SHT30;58476;48.072;11.970;2023-02-11T15:06:45;22.43;40.78
67064;SHT30;58476;48.072;11.970;2023-02-11T15:09:33;22.37;40.36
67064;SHT30;58476;48.072;11.970;2023-02-11T15:12:02;22.29;39.82
67064;SHT30;58476;48.072;11.970;2023-02-11T15:14:30;22.29;40.73
67064;SHT30;58476;48.072;11.970;2023-02-11T15:16:59;22.24;41.33
67064;SHT30;58476;48.072;11.970;2023-02-11T15:19:29;22.18;41.40
67064;SHT30;58476;48.072;11.970;2023-02-11T15:21:56;22.16;41.16
67064;SHT30;58476;48.072;11.970;2023-02-11T15:24:27;22.10;36.70
67064;SHT30;58476;48.072;11.970;2023-02-11T15:27:10;21.93;34.45
67064;SHT30;58476;48.072;11.970;2023-02-11T15:29:38;21.85;32.05
67064;SHT30;58476;48.072;11.970;2023-02-11T15:32:06;21.86;31.77
67064;SHT30;58476;48.072;11.970;2023-02-11T15:34:32;21.83;32.91
67064;SHT30;58476;48.072;11.970;2023-02-11T15:36:57;21.76;35.17
67064;SHT30;58476;48.072;11.970;2023-02-11T15:39:36;21.75;36.73
67064;SHT30;58476;48.072;11.970;2023-02-11T15:44:47;21.79;38.44
67064;SHT30;58476;48.072;11.970;2023-02-11T15:47:19;21.81;39.30
67064;SHT30;58476;48.072;11.970;2023-02-11T15:49:46;21.82;39.77
67064;SHT30;58476;48.072;11.970;2023-02-11T15:52:13;21.85;40.17
67064;SHT30;58476;48.072;11.970;2023-02-11T15:54:39;21.86;40.21
67064;SHT30;58476;48.072;11.970;2023-02-11T15:57:09;21.93;40.44
67064;SHT30;58476;48.072;11.970;2023-02-11T15:59:37;21.92;40.80
67064;SHT30;58476;48.072;11.970;2023-02-11T16:02:29;21.93;41.00
67064;SHT30;58476;48.072;11.970;2023-02-11T16:04:54;21.99;41.11
67064;SHT30;58476;48.072;11.970;2023-02-11T16:07:59;22.00;41.31
67064;SHT30;58476;48.072;11.970;2023-02-11T16:10:33;22.03;41.39
67064;SHT30;58476;48.072;11.970;2023-02-11T16:17:59;22.09;41.81
67064;SHT30;58476;48.072;11.970;2023-02-11T16:20:26;22.09;41.92
67064;SHT30;58476;48.072;11.970;2023-02-11T16:22:52;22.12;41.62
67064;SHT30;58476;48.072;11.970;2023-02-11T16:25:19;22.13;41.14
67064;SHT30;58476;48.072;11.970;2023-02-11T16:27:51;22.14;41.32
67064;SHT30;58476;48.072;11.970;2023-02-11T16:30:31;22.16;41.13
67064;SHT30;58476;48.072;11.970;2023-02-11T16:32:57;22.18;41.17
67064;SHT30;58476;48.072;11.970;2023-02-11T16:35:22;22.18;41.32
67064;SHT30;58476;48.072;11.970;2023-02-11T16:37:47;22.20;40.90
67064;SHT30;58476;48.072;11.970;2023-02-11T16:40:13;22.18;41.14
67064;SHT30;58476;48.072;11.970;2023-02-11T16:42:38;22.21;41.67
67064;SHT30;58476;48.072;11.970;2023-02-11T16:45:04;22.21;41.43
67064;SHT30;58476;48.072;11.970;2023-02-11T16:47:29;22.24;40.93
67064;SHT30;58476;48.072;11.970;2023-02-11T16:49:55;22.23;41.00
67064;SHT30;58476;48.072;11.970;2023-02-11T16:52:22;22.20;41.12
67064;SHT30;58476;48.072;11.970;2023-02-11T16:54:48;22.21;41.04
67064;SHT30;58476;48.072;11.970;2023-02-11T16:59:39;22.18;41.15
67064;SHT30;58476;48.072;11.970;2023-02-11T17:05:34;22.10;41.17
67064;SHT30;58476;48.072;11.970;2023-02-11T17:07:59;22.09;41.23
67064;SHT30;58476;48.072;11.970;2023-02-11T17:10:25;22.07;41.12
67064;SHT30;58476;48.072;11.970;2023-02-11T17:12:50;22.06;41.01
67064;SHT30;58476;48.072;11.970;2023-02-11T17:15:16;22.09;41.96
67064;SHT30;58476;48.072;11.970;2023-02-11T17:17:41;22.09;41.60
67064;SHT30;58476;48.072;11.970;2023-02-11T17:20:09;22.07;41.93
67064;SHT30;58476;48.072;11.970;2023-02-11T17:22:35;22.07;42.22
67064;SHT30;58476;48.072;11.970;2023-02-11T17:25:01;22.07;42.22
67064;SHT30;58476;48.072;11.970;2023-02-11T17:27:26;22.07;42.58
67064;SHT30;58476;48.072;11.970;2023-02-11T17:29:51;22.13;42.38
67064;SHT30;58476;48.072;11.970;2023-02-11T17:32:17;22.14;42.50
67064;SHT30;58476;48.072;11.970;2023-02-11T17:34:42;22.16;43.28
67064;SHT30;58476;48.072;11.970;2023-02-11T17:37:07;22.23;43.64
67064;SHT30;58476;48.072;11.970;2023-02-11T17:39:34;22.36;43.64
67064;SHT30;58476;48.072;11.970;2023-02-11T17:41:59;22.39;43.99
67064;SHT30;58476;48.072;11.970;2023-02-11T17:44:25;22.40;43.64
67064;SHT30;58476;48.072;11.970;2023-02-11T17:46:50;22.39;43.95
67064;SHT30;58476;48.072;11.970;2023-02-11T17:49:16;22.39;44.39
67064;SHT30;58476;48.072;11.970;2023-02-11T17:51:41;22.44;44.75